sensor_id;sensor_type;location;lat;lon;timestamp;temperature;humidity
3312;DHT22;1668;49.648;8.570;2024-03-02T00:01:14;5.70;99.90
3312;DHT22;1668;49.648;8.570;2024-03-02T00:03:42;5.70;99.90
3312;DHT22;1668;49.648;8.570;2024-03-02T00:06:11;5.70;99.90
3312;DHT22;1668;49.648;8.570;2024-03-02T00:08:38;5.60;99.90
3312;DHT22;1668;49.648;8.570;2024-03-02T00:11:05;5.70;99.90
3312;DHT22;1668;49.648;8.570;2024-03-02T00:13:32;5.60;99.90
3312;DHT22;1668;49.648;8.570;2024-03-02T00:16:00;5.60;99.90
3312;DHT22;1668;49.648;8.570;2024-03-02T00:18:31;5.60;99.90
3312;DHT22;1668;49.648;8.570;2024-03-02T00:20:59;5.60;99.90
3312;DHT22;1668;49.648;8.570;2024-03-02T00:23:30;5.60;99.90
3312;DHT22;1668;49.648;8.570;2024-03-02T00:25:57;5.50;99.90
3312;DHT22;1668;49.648;8.570;2024-03-02T00:28:26;5.50;99.90
3312;DHT22;1668;49.648;8.570;2024-03-02T00:31:02;5.50;99.90
3312;DHT22;1668;49.648;8.570;2024-03-02T00:33:32;5.50;99.90
3312;DHT22;1668;49.648;8.570;2024-03-02T00:35:59;5.40;99.90
3312;DHT22;1668;49.648;8.570;2024-03-02T00:38:28;5.50;99.90
3312;DHT22;1668;49.648;8.570;2024-03-02T00:40:55;5.40;99.90
3312;DHT22;1668;49.648;8.570;2024-03-02T00:43:42;5.40;99.90
3312;DHT22;1668;49.648;8.570;2024-03-02T00:46:11;5.40;99.90
3312;DHT22;1668;49.648;8.570;2024-03-02T00:48:39;5.40;99.90
3312;DHT22;1668;49.648;8.570;2024-03-02T00:51:06;5.40;99.90
3312;DHT22;1668;49.648;8.570;2024-03-02T00:53:34;5.40;1.00
3312;DHT22;1668;49.648;8.570;2024-03-02T00:56:01;5.30;99.90
3312;DHT22;1668;49.648;8.570;2024-03-02T00:58:28;5.30;99.90
3312;DHT22;1668;49.648;8.570;2024-03-02T01:00:55;5.20;99.90
3312;DHT22;1668;49.648;8.570;2024-03-02T01:03:22;5.20;99.90
3312;DHT22;1668;49.648;8.570;2024-03-02T01:05:49;5.20;99.90
3312;DHT22;1668;49.648;8.570;2024-03-02T01:08:16;5.10;99.90
3312;DHT22;1668;49.648;8.570;2024-03-02T01:10:44;5.10;99.90
3312;DHT22;1668;49.648;8.570;2024-03-02T01:13:11;5.20;99.90
3312;DHT22;1668;49.648;8.570;2024-03-02T01:15:38;5.10;99.90
3312;DHT22;1668;49.648;8.570;2024-03-02T01:18:05;5.10;99.90
3312;DHT22;1668;49.648;8.570;2024-03-02T01:20:32;5.10;99.90
3312;DHT22;1668;49.648;8.570;2024-03-02T01:22:59;5.00;99.90
3312;DHT22;1668;49.648;8.570;2024-03-02T01:25:25;5.00;99.90
3312;DHT22;1668;49.648;8.570;2024-03-02T01:27:54;5.00;99.90
3312;DHT22;1668;49.648;8.570;2024-03-02T01:30:20;5.00;99.90
3312;DHT22;1668;49.648;8.570;2024-03-02T01:32:47;5.00;99.90
3312;DHT22;1668;49.648;8.570;2024-03-02T01:35:13;5.00;99.90
3312;DHT22;1668;49.648;8.570;2024-03-02T01:37:41;4.90;99.90
3312;DHT22;1668;49.648;8.570;2024-03-02T01:40:09;4.90;99.90
3312;DHT22;1668;49.648;8.570;2024-03-02T01:42:36;4.90;99.90
3312;DHT22;1668;49.648;8.570;2024-03-02T01:45:06;4.90;99.90
3312;DHT22;1668;49.648;8.570;2024-03-02T01:47:33;4.90;99.90
3312;DHT22;1668;49.648;8.570;2024-03-02T01:50:01;4.90;99.90
3312;DHT22;1668;49.648;8.570;2024-03-02T01:52:28;4.80;99.90
3312;DHT22;1668;49.648;8.570;2024-03-02T01:54:55;4.80;99.90
3312;DHT22;1668;49.648;8.570;2024-03-02T01:57:22;4.80;99.90
3312;DHT22;1668;49.648;8.570;2024-03-02T01:59:49;4.80;99.90
3312;DHT22;1668;49.648;8.570;2024-03-02T02:02:18;4.70;99.90
3312;DHT22;1668;49.648;8.570;2024-03-02T02:04:45;4.70;99.90
3312;DHT22;1668;49.648;8.570;2024-03-02T02:07:12;4.70;99.90
3312;DHT22;1668;49.648;8.570;2024-03-02T02:09:40;4.70;99.90
3312;DHT22;1668;49.648;8.570;2024-03-02T02:12:08;4.70;99.90
3312;DHT22;1668;49.648;8.570;2024-03-02T02:14:34;4.60;99.90
3312;DHT22;1668;49.648;8.570;2024-03-02T02:17:01;4.60;99.90
3312;DHT22;1668;49.648;8.570;2024-03-02T02:19:29;4.50;99.90
3312;DHT22;1668;49.648;8.570;2024-03-02T02:21:58;4.50;99.90
3312;DHT22;1668;49.648;8.570;2024-03-02T02:24:24;4.60;99.90
3312;DHT22;1668;49.648;8.570;2024-03-02T02:26:51;4.50;99.90
3312;DHT22;1668;49.648;8.570;2024-03-02T02:29:18;4.50;99.90
3312;DHT22;1668;49.648;8.570;2024-03-02T02:31:45;4.50;1.00
3312;DHT22;1668;49.648;8.570;2024-03-02T02:34:12;4.50;1.00
3312;DHT22;1668;49.648;8.570;2024-03-02T02:36:40;4.50;1.00
3312;DHT22;1668;49.648;8.570;2024-03-02T02:39:12;4.40;1.00
3312;DHT22;1668;49.648;8.570;2024-03-02T02:41:40;4.40;1.00
3312;DHT22;1668;49.648;8.570;2024-03-02T02:44:07;4.40;1.00
3312;DHT22;1668;49.648;8.570;2024-03-02T02:46:34;4.40;1.00
3312;DHT22;1668;49.648;8.570;2024-03-02T02:49:00;4.40;1.00
3312;DHT22;1668;49.648;8.570;2024-03-02T02:51:27;4.40;1.00
3312;DHT22;1668;49.648;8.570;2024-03-02T02:53:54;4.30;1.00
3312;DHT22;1668;49.648;8.570;2024-03-02T02:56:22;4.30;1.00
3312;DHT22;1668;49.648;8.570;2024-03-02T02:58:49;4.30;1.00
3312;DHT22;1668;49.648;8.570;2024-03-02T03:01:16;4.30;1.00
3312;DHT22;1668;49.648;8.570;2024-03-02T03:03:43;4.30;1.00
3312;DHT22;1668;49.648;8.570;2024-03-02T03:06:11;4.30;1.00
3312;DHT22;1668;49.648;8.570;2024-03-02T03:08:38;4.20;1.00
3312;DHT22;1668;49.648;8.570;2024-03-02T03:11:05;4.20;1.00
3312;DHT22;1668;49.648;8.570;2024-03-02T03:13:34;4.20;1.00
3312;DHT22;1668;49.648;8.570;2024-03-02T03:16:00;4.20;1.00
3312;DHT22;1668;49.648;8.570;2024-03-02T03:18:28;4.10;1.00
3312;DHT22;1668;49.648;8.570;2024-03-02T03:20:55;4.20;1.00
3312;DHT22;1668;49.648;8.570;2024-03-02T03:23:22;4.10;1.00
3312;DHT22;1668;49.648;8.570;2024-03-02T03:25:48;4.10;1.00
3312;DHT22;1668;49.648;8.570;2024-03-02T03:28:15;4.10;1.00
3312;DHT22;1668;49.648;8.570;2024-03-02T03:30:43;4.10;1.00
3312;DHT22;1668;49.648;8.570;2024-03-02T03:33:10;4.10;1.00
3312;DHT22;1668;49.648;8.570;2024-03-02T03:35:37;4.00;1.00
3312;DHT22;1668;49.648;8.570;2024-03-02T03:38:04;4.00;1.00
3312;DHT22;1668;49.648;8.570;2024-03-02T03:40:31;4.00;1.00
3312;DHT22;1668;49.648;8.570;2024-03-02T03:42:57;4.00;1.00
3312;DHT22;1668;49.648;8.570;2024-03-02T03:45:25;4.00;1.00
3312;DHT22;1668;49.648;8.570;2024-03-02T03:47:54;4.00;1.00
3312;DHT22;1668;49.648;8.570;2024-03-02T03:50:21;4.00;1.00
3312;DHT22;1668;49.648;8.570;2024-03-02T03:52:47;4.00;1.00
3312;DHT22;1668;49.648;8.570;2024-03-02T03:55:14;4.00;1.00
3312;DHT22;1668;49.648;8.570;2024-03-02T03:57:41;4.00;1.00
3312;DHT22;1668;49.648;8.570;2024-03-02T04:00:08;4.00;1.00
3312;DHT22;1668;49.648;8.570;2024-03-02T04:02:37;4.00;1.00
3312;DHT22;1668;49.648;8.570;2024-03-02T04:05:06;4.00;1.00
3312;DHT22;1668;49.648;8.570;2024-03-02T04:07:35;4.00;1.00
3312;DHT22;1668;49.648;8.570;2024-03-02T04:10:07;4.00;1.00
3312;DHT22;1668;49.648;8.570;2024-03-02T04:12:33;4.00;1.00
3312;DHT22;1668;49.648;8.570;2024-03-02T04:15:00;3.90;1.00
3312;DHT22;1668;49.648;8.570;2024-03-02T04:17:31;3.90;1.00
3312;DHT22;1668;49.648;8.570;2024-03-02T04:19:57;3.90;1.00
3312;DHT22;1668;49.648;8.570;2024-03-02T04:22:26;3.90;1.00
3312;DHT22;1668;49.648;8.570;2024-03-02T04:24:53;3.90;1.00
3312;DHT22;1668;49.648;8.570;2024-03-02T04:27:20;3.80;1.00
3312;DHT22;1668;49.648;8.570;2024-03-02T04:29:46;3.80;1.00
3312;DHT22;1668;49.648;8.570;2024-03-02T04:32:13;3.80;1.00
3312;DHT22;1668;49.648;8.570;2024-03-02T04:34:40;3.80;1.00
3312;DHT22;1668;49.648;8.570;2024-03-02T04:37:08;3.80;1.00
3312;DHT22;1668;49.648;8.570;2024-03-02T04:39:36;3.80;1.00
3312;DHT22;1668;49.648;8.570;2024-03-02T04:42:03;3.80;1.00
3312;DHT22;1668;49.648;8.570;2024-03-02T04:44:30;3.70;1.00
3312;DHT22;1668;49.648;8.570;2024-03-02T04:46:57;3.70;1.00
3312;DHT22;1668;49.648;8.570;2024-03-02T04:49:24;3.70;1.00
3312;DHT22;1668;49.648;8.570;2024-03-02T04:51:51;3.70;1.00
3312;DHT22;1668;49.648;8.570;2024-03-02T04:54:18;3.70;1.00
3312;DHT22;1668;49.648;8.570;2024-03-02T04:56:46;3.70;1.00
3312;DHT22;1668;49.648;8.570;2024-03-02T04:59:16;3.70;1.00
3312;DHT22;1668;49.648;8.570;2024-03-02T05:01:43;3.60;1.00
3312;DHT22;1668;49.648;8.570;2024-03-02T05:04:10;3.70;1.00
3312;DHT22;1668;49.648;8.570;2024-03-02T05:06:37;3.60;1.00
3312;DHT22;1668;49.648;8.570;2024-03-02T05:09:05;3.60;1.00
3312;DHT22;1668;49.648;8.570;2024-03-02T05:11:32;3.60;1.00
3312;DHT22;1668;49.648;8.570;2024-03-02T05:14:23;3.60;1.00
3312;DHT22;1668;49.648;8.570;2024-03-02T05:16:49;3.60;1.00
3312;DHT22;1668;49.648;8.570;2024-03-02T05:19:17;3.60;1.00
3312;DHT22;1668;49.648;8.570;2024-03-02T05:21:44;3.60;1.00
3312;DHT22;1668;49.648;8.570;2024-03-02T05:27:06;3.50;1.00
3312;DHT22;1668;49.648;8.570;2024-03-02T05:29:34;3.50;1.00
3312;DHT22;1668;49.648;8.570;2024-03-02T05:32:01;3.50;1.00
3312;DHT22;1668;49.648;8.570;2024-03-02T05:34:28;3.50;1.00
3312;DHT22;1668;49.648;8.570;2024-03-02T05:36:56;3.50;1.00
3312;DHT22;1668;49.648;8.570;2024-03-02T05:39:23;3.50;1.00
3312;DHT22;1668;49.648;8.570;2024-03-02T05:41:50;3.50;1.00
3312;DHT22;1668;49.648;8.570;2024-03-02T05:44:16;3.50;1.00
3312;DHT22;1668;49.648;8.570;2024-03-02T05:46:45;3.50;1.00
3312;DHT22;1668;49.648;8.570;2024-03-02T05:49:12;3.50;8.80
3312;DHT22;1668;49.648;8.570;2024-03-02T05:51:39;3.50;5.50
3312;DHT22;1668;49.648;8.570;2024-03-02T05:54:05;3.50;1.00
3312;DHT22;1668;49.648;8.570;2024-03-02T05:56:32;3.40;1.00
3312;DHT22;1668;49.648;8.570;2024-03-02T05:58:59;3.40;1.00
3312;DHT22;1668;49.648;8.570;2024-03-02T06:01:37;3.40;1.00
3312;DHT22;1668;49.648;8.570;2024-03-02T06:04:06;3.30;1.00
3312;DHT22;1668;49.648;8.570;2024-03-02T06:06:32;3.30;1.00
3312;DHT22;1668;49.648;8.570;2024-03-02T06:09:00;3.30;1.00
3312;DHT22;1668;49.648;8.570;2024-03-02T06:11:28;3.20;1.00
3312;DHT22;1668;49.648;8.570;2024-03-02T06:13:55;3.20;1.00
3312;DHT22;1668;49.648;8.570;2024-03-02T06:16:22;3.20;1.00
3312;DHT22;1668;49.648;8.570;2024-03-02T06:18:48;3.20;1.00
3312;DHT22;1668;49.648;8.570;2024-03-02T06:21:16;3.20;1.00
3312;DHT22;1668;49.648;8.570;2024-03-02T06:23:43;3.20;1.00
3312;DHT22;1668;49.648;8.570;2024-03-02T06:26:10;3.20;1.00
3312;DHT22;1668;49.648;8.570;2024-03-02T06:28:37;3.20;1.00
3312;DHT22;1668;49.648;8.570;2024-03-02T06:31:04;3.20;1.00
3312;DHT22;1668;49.648;8.570;2024-03-02T06:33:30;3.20;1.00
3312;DHT22;1668;49.648;8.570;2024-03-02T06:35:57;3.20;1.00
3312;DHT22;1668;49.648;8.570;2024-03-02T06:38:25;3.20;1.00
3312;DHT22;1668;49.648;8.570;2024-03-02T06:40:52;3.20;1.00
3312;DHT22;1668;49.648;8.570;2024-03-02T06:43:20;3.20;1.30
3312;DHT22;1668;49.648;8.570;2024-03-02T06:45:48;3.20;3.90
3312;DHT22;1668;49.648;8.570;2024-03-02T06:48:15;3.20;8.60
3312;DHT22;1668;49.648;8.570;2024-03-02T06:50:45;3.20;12.50
3312;DHT22;1668;49.648;8.570;2024-03-02T06:53:12;3.20;35.30
3312;DHT22;1668;49.648;8.570;2024-03-02T06:55:40;3.20;64.50
3312;DHT22;1668;49.648;8.570;2024-03-02T06:58:07;3.20;87.40
3312;DHT22;1668;49.648;8.570;2024-03-02T07:00:34;3.30;97.80
3312;DHT22;1668;49.648;8.570;2024-03-02T07:03:02;3.30;99.90
3312;DHT22;1668;49.648;8.570;2024-03-02T07:05:32;3.30;99.90
3312;DHT22;1668;49.648;8.570;2024-03-02T07:08:02;3.30;99.90
3312;DHT22;1668;49.648;8.570;2024-03-02T07:10:37;3.30;99.90
3312;DHT22;1668;49.648;8.570;2024-03-02T07:13:08;3.30;99.90
3312;DHT22;1668;49.648;8.570;2024-03-02T07:15:35;3.40;99.90
3312;DHT22;1668;49.648;8.570;2024-03-02T07:18:19;3.40;99.90
3312;DHT22;1668;49.648;8.570;2024-03-02T07:20:45;3.40;99.90
3312;DHT22;1668;49.648;8.570;2024-03-02T07:23:14;3.40;99.90
3312;DHT22;1668;49.648;8.570;2024-03-02T07:25:41;3.40;99.90
3312;DHT22;1668;49.648;8.570;2024-03-02T07:28:09;3.40;99.90
3312;DHT22;1668;49.648;8.570;2024-03-02T07:30:36;3.40;99.90
3312;DHT22;1668;49.648;8.570;2024-03-02T07:33:04;3.40;99.90
3312;DHT22;1668;49.648;8.570;2024-03-02T07:35:32;3.40;99.90
3312;DHT22;1668;49.648;8.570;2024-03-02T07:37:59;3.50;99.90
3312;DHT22;1668;49.648;8.570;2024-03-02T07:40:26;3.50;99.90
3312;DHT22;1668;49.648;8.570;2024-03-02T07:42:52;3.50;99.90
3312;DHT22;1668;49.648;8.570;2024-03-02T07:45:21;3.60;99.90
3312;DHT22;1668;49.648;8.570;2024-03-02T07:47:48;3.60;99.90
3312;DHT22;1668;49.648;8.570;2024-03-02T07:50:15;3.70;99.90
3312;DHT22;1668;49.648;8.570;2024-03-02T07:52:42;3.70;99.90
3312;DHT22;1668;49.648;8.570;2024-03-02T07:55:09;3.80;99.90
3312;DHT22;1668;49.648;8.570;2024-03-02T07:57:36;3.80;99.90
3312;DHT22;1668;49.648;8.570;2024-03-02T08:00:04;3.90;99.90
3312;DHT22;1668;49.648;8.570;2024-03-02T08:02:32;4.00;99.90
3312;DHT22;1668;49.648;8.570;2024-03-02T08:04:59;4.00;99.90
3312;DHT22;1668;49.648;8.570;2024-03-02T08:07:26;4.10;99.90
3312;DHT22;1668;49.648;8.570;2024-03-02T08:09:53;4.20;99.90
3312;DHT22;1668;49.648;8.570;2024-03-02T08:12:20;4.30;99.90
3312;DHT22;1668;49.648;8.570;2024-03-02T08:14:49;4.30;99.90
3312;DHT22;1668;49.648;8.570;2024-03-02T08:17:15;4.40;99.90
3312;DHT22;1668;49.648;8.570;2024-03-02T08:19:44;4.40;99.90
3312;DHT22;1668;49.648;8.570;2024-03-02T08:22:11;4.50;99.90
3312;DHT22;1668;49.648;8.570;2024-03-02T08:24:37;4.50;99.90
3312;DHT22;1668;49.648;8.570;2024-03-02T08:27:04;4.70;99.90
3312;DHT22;1668;49.648;8.570;2024-03-02T08:29:31;4.80;99.90
3312;DHT22;1668;49.648;8.570;2024-03-02T08:31:58;4.80;99.90
3312;DHT22;1668;49.648;8.570;2024-03-02T08:34:24;4.90;99.90
3312;DHT22;1668;49.648;8.570;2024-03-02T08:36:53;5.00;99.90
3312;DHT22;1668;49.648;8.570;2024-03-02T08:39:20;5.00;99.90
3312;DHT22;1668;49.648;8.570;2024-03-02T08:41:47;5.00;99.90
3312;DHT22;1668;49.648;8.570;2024-03-02T08:44:14;5.10;99.90
3312;DHT22;1668;49.648;8.570;2024-03-02T08:46:41;5.20;99.90
3312;DHT22;1668;49.648;8.570;2024-03-02T08:49:09;5.30;99.90
3312;DHT22;1668;49.648;8.570;2024-03-02T08:51:36;5.40;99.90
3312;DHT22;1668;49.648;8.570;2024-03-02T08:54:04;5.50;99.90
3312;DHT22;1668;49.648;8.570;2024-03-02T08:56:31;5.60;99.90
3312;DHT22;1668;49.648;8.570;2024-03-02T08:58:58;5.70;99.90
3312;DHT22;1668;49.648;8.570;2024-03-02T09:01:25;5.70;99.90
3312;DHT22;1668;49.648;8.570;2024-03-02T09:03:52;5.80;99.90
3312;DHT22;1668;49.648;8.570;2024-03-02T09:06:19;5.90;99.90
3312;DHT22;1668;49.648;8.570;2024-03-02T09:08:46;6.00;99.90
3312;DHT22;1668;49.648;8.570;2024-03-02T09:11:16;6.10;99.90
3312;DHT22;1668;49.648;8.570;2024-03-02T09:13:43;6.20;99.90
3312;DHT22;1668;49.648;8.570;2024-03-02T09:16:10;6.30;99.90
3312;DHT22;1668;49.648;8.570;2024-03-02T09:18:37;6.50;99.90
3312;DHT22;1668;49.648;8.570;2024-03-02T09:21:04;6.60;99.90
3312;DHT22;1668;49.648;8.570;2024-03-02T09:23:32;6.70;99.90
3312;DHT22;1668;49.648;8.570;2024-03-02T09:25:59;6.80;99.90
3312;DHT22;1668;49.648;8.570;2024-03-02T09:28:27;6.90;94.70
3312;DHT22;1668;49.648;8.570;2024-03-02T09:30:54;6.90;77.10
3312;DHT22;1668;49.648;8.570;2024-03-02T09:33:20;7.00;17.10
3312;DHT22;1668;49.648;8.570;2024-03-02T09:35:47;7.20;1.00
3312;DHT22;1668;49.648;8.570;2024-03-02T09:38:15;7.30;1.00
3312;DHT22;1668;49.648;8.570;2024-03-02T09:40:42;7.40;1.00
3312;DHT22;1668;49.648;8.570;2024-03-02T09:43:09;7.60;99.90
3312;DHT22;1668;49.648;8.570;2024-03-02T09:45:37;7.70;99.90
3312;DHT22;1668;49.648;8.570;2024-03-02T09:48:05;7.90;99.90
3312;DHT22;1668;49.648;8.570;2024-03-02T09:50:32;8.10;1.00
3312;DHT22;1668;49.648;8.570;2024-03-02T09:52:59;8.30;99.90
3312;DHT22;1668;49.648;8.570;2024-03-02T09:55:26;8.40;99.90
3312;DHT22;1668;49.648;8.570;2024-03-02T09:57:53;8.60;99.90
3312;DHT22;1668;49.648;8.570;2024-03-02T10:00:20;8.80;99.90
3312;DHT22;1668;49.648;8.570;2024-03-02T10:02:48;8.90;1.00
3312;DHT22;1668;49.648;8.570;2024-03-02T10:05:23;9.00;99.90
3312;DHT22;1668;49.648;8.570;2024-03-02T10:07:58;9.10;1.00
3312;DHT22;1668;49.648;8.570;2024-03-02T10:10:34;9.20;99.90
3312;DHT22;1668;49.648;8.570;2024-03-02T10:13:05;9.30;99.90
3312;DHT22;1668;49.648;8.570;2024-03-02T10:15:33;9.50;1.00
3312;DHT22;1668;49.648;8.570;2024-03-02T10:18:01;9.60;1.00
3312;DHT22;1668;49.648;8.570;2024-03-02T10:20:28;9.70;99.90
3312;DHT22;1668;49.648;8.570;2024-03-02T10:22:55;9.80;99.90
3312;DHT22;1668;49.648;8.570;2024-03-02T10:25:29;9.80;99.90
3312;DHT22;1668;49.648;8.570;2024-03-02T10:27:58;9.90;99.90
3312;DHT22;1668;49.648;8.570;2024-03-02T10:30:25;10.10;1.00
3312;DHT22;1668;49.648;8.570;2024-03-02T10:32:53;10.20;1.00
3312;DHT22;1668;49.648;8.570;2024-03-02T10:35:22;10.30;1.00
3312;DHT22;1668;49.648;8.570;2024-03-02T10:37:51;10.40;99.90
3312;DHT22;1668;49.648;8.570;2024-03-02T10:40:20;10.50;99.90
3312;DHT22;1668;49.648;8.570;2024-03-02T10:42:48;10.60;99.90
3312;DHT22;1668;49.648;8.570;2024-03-02T10:45:16;10.80;99.90
3312;DHT22;1668;49.648;8.570;2024-03-02T10:47:44;10.90;1.00
3312;DHT22;1668;49.648;8.570;2024-03-02T10:54:26;11.10;99.90
3312;DHT22;1668;49.648;8.570;2024-03-02T10:57:20;11.30;17.60
3312;DHT22;1668;49.648;8.570;2024-03-02T10:59:52;11.60;1.00
3312;DHT22;1668;49.648;8.570;2024-03-02T11:02:35;11.80;1.00
3312;DHT22;1668;49.648;8.570;2024-03-02T11:08:35;12.20;99.90
3312;DHT22;1668;49.648;8.570;2024-03-02T11:11:48;12.50;99.90
3312;DHT22;1668;49.648;8.570;2024-03-02T11:14:53;12.70;99.90
3312;DHT22;1668;49.648;8.570;2024-03-02T11:20:30;12.70;99.90
3312;DHT22;1668;49.648;8.570;2024-03-02T11:23:05;12.70;99.90
3312;DHT22;1668;49.648;8.570;2024-03-02T11:29:55;13.20;99.90
3312;DHT22;1668;49.648;8.570;2024-03-02T11:32:24;13.40;99.90
3312;DHT22;1668;49.648;8.570;2024-03-02T11:34:51;13.50;99.90
3312;DHT22;1668;49.648;8.570;2024-03-02T11:37:19;13.70;99.90
3312;DHT22;1668;49.648;8.570;2024-03-02T11:39:49;13.80;99.90
3312;DHT22;1668;49.648;8.570;2024-03-02T11:42:16;13.90;61.30
3312;DHT22;1668;49.648;8.570;2024-03-02T11:44:45;14.00;46.30
3312;DHT22;1668;49.648;8.570;2024-03-02T11:47:15;14.10;49.20
3312;DHT22;1668;49.648;8.570;2024-03-02T11:49:44;14.20;23.10
3312;DHT22;1668;49.648;8.570;2024-03-02T11:52:12;14.30;13.80
3312;DHT22;1668;49.648;8.570;2024-03-02T11:54:42;14.30;11.80
3312;DHT22;1668;49.648;8.570;2024-03-02T11:57:12;14.40;1.00
3312;DHT22;1668;49.648;8.570;2024-03-02T11:59:39;14.50;1.00
3312;DHT22;1668;49.648;8.570;2024-03-02T12:02:06;14.70;1.00
3312;DHT22;1668;49.648;8.570;2024-03-02T12:04:34;14.80;1.00
3312;DHT22;1668;49.648;8.570;2024-03-02T12:07:01;14.90;1.00
3312;DHT22;1668;49.648;8.570;2024-03-02T12:12:56;14.90;1.00
3312;DHT22;1668;49.648;8.570;2024-03-02T12:15:25;14.90;1.00
3312;DHT22;1668;49.648;8.570;2024-03-02T12:17:54;15.00;1.00
3312;DHT22;1668;49.648;8.570;2024-03-02T12:20:23;15.10;1.00
3312;DHT22;1668;49.648;8.570;2024-03-02T12:22:51;15.10;1.00
3312;DHT22;1668;49.648;8.570;2024-03-02T12:25:19;15.20;1.00
3312;DHT22;1668;49.648;8.570;2024-03-02T12:27:47;15.30;1.00
3312;DHT22;1668;49.648;8.570;2024-03-02T12:30:14;15.40;1.00
3312;DHT22;1668;49.648;8.570;2024-03-02T12:32:42;15.40;1.00
3312;DHT22;1668;49.648;8.570;2024-03-02T12:35:10;15.50;1.00
3312;DHT22;1668;49.648;8.570;2024-03-02T12:37:45;15.60;1.00
3312;DHT22;1668;49.648;8.570;2024-03-02T12:40:12;15.70;1.00
3312;DHT22;1668;49.648;8.570;2024-03-02T12:42:50;15.70;1.00
3312;DHT22;1668;49.648;8.570;2024-03-02T12:45:18;15.90;1.00
3312;DHT22;1668;49.648;8.570;2024-03-02T12:47:50;15.90;1.00
3312;DHT22;1668;49.648;8.570;2024-03-02T12:50:18;15.90;1.00
3312;DHT22;1668;49.648;8.570;2024-03-02T12:52:52;16.00;1.00
3312;DHT22;1668;49.648;8.570;2024-03-02T12:55:20;16.10;1.00
3312;DHT22;1668;49.648;8.570;2024-03-02T12:57:50;16.30;1.00
3312;DHT22;1668;49.648;8.570;2024-03-02T13:00:19;16.40;1.00
3312;DHT22;1668;49.648;8.570;2024-03-02T13:02:47;16.30;1.00
3312;DHT22;1668;49.648;8.570;2024-03-02T13:05:16;16.30;1.00
3312;DHT22;1668;49.648;8.570;2024-03-02T13:07:43;16.20;1.00
3312;DHT22;1668;49.648;8.570;2024-03-02T13:10:12;16.30;1.00
3312;DHT22;1668;49.648;8.570;2024-03-02T13:12:39;16.30;1.00
3312;DHT22;1668;49.648;8.570;2024-03-02T13:15:09;16.30;1.00
3312;DHT22;1668;49.648;8.570;2024-03-02T13:17:36;16.30;1.00
3312;DHT22;1668;49.648;8.570;2024-03-02T13:20:03;16.20;1.00
3312;DHT22;1668;49.648;8.570;2024-03-02T13:22:36;16.30;1.00
3312;DHT22;1668;49.648;8.570;2024-03-02T13:25:05;16.30;1.00
3312;DHT22;1668;49.648;8.570;2024-03-02T13:27:37;16.30;1.00
3312;DHT22;1668;49.648;8.570;2024-03-02T13:30:06;16.50;1.00
3312;DHT22;1668;49.648;8.570;2024-03-02T13:32:34;16.40;1.00
3312;DHT22;1668;49.648;8.570;2024-03-02T13:35:03;16.40;1.00
3312;DHT22;1668;49.648;8.570;2024-03-02T13:37:32;16.30;1.00
3312;DHT22;1668;49.648;8.570;2024-03-02T13:40:00;16.30;1.00
3312;DHT22;1668;49.648;8.570;2024-03-02T13:42:30;16.30;1.00
3312;DHT22;1668;49.648;8.570;2024-03-02T13:45:00;16.30;1.00
3312;DHT22;1668;49.648;8.570;2024-03-02T13:47:30;16.40;1.00
3312;DHT22;1668;49.648;8.570;2024-03-02T13:49:57;16.30;1.00
3312;DHT22;1668;49.648;8.570;2024-03-02T13:52:24;16.20;1.00
3312;DHT22;1668;49.648;8.570;2024-03-02T13:54:52;16.20;1.00
3312;DHT22;1668;49.648;8.570;2024-03-02T13:57:19;16.10;1.00
3312;DHT22;1668;49.648;8.570;2024-03-02T13:59:47;16.20;1.00
3312;DHT22;1668;49.648;8.570;2024-03-02T14:02:17;16.20;1.00
3312;DHT22;1668;49.648;8.570;2024-03-02T14:04:45;16.10;1.00
3312;DHT22;1668;49.648;8.570;2024-03-02T14:07:15;16.10;1.00
3312;DHT22;1668;49.648;8.570;2024-03-02T14:09:43;16.10;1.00
3312;DHT22;1668;49.648;8.570;2024-03-02T14:12:11;16.00;1.00
3312;DHT22;1668;49.648;8.570;2024-03-02T14:14:39;16.00;1.00
3312;DHT22;1668;49.648;8.570;2024-03-02T14:17:07;16.00;1.00
3312;DHT22;1668;49.648;8.570;2024-03-02T14:19:39;15.90;1.00
3312;DHT22;1668;49.648;8.570;2024-03-02T14:22:06;16.00;1.00
3312;DHT22;1668;49.648;8.570;2024-03-02T14:24:34;15.80;1.00
3312;DHT22;1668;49.648;8.570;2024-03-02T14:27:04;15.80;1.00
3312;DHT22;1668;49.648;8.570;2024-03-02T14:29:31;15.90;1.00
3312;DHT22;1668;49.648;8.570;2024-03-02T14:32:19;15.90;1.00
3312;DHT22;1668;49.648;8.570;2024-03-02T14:34:47;15.90;1.00
3312;DHT22;1668;49.648;8.570;2024-03-02T14:37:16;15.90;1.00
3312;DHT22;1668;49.648;8.570;2024-03-02T14:39:43;16.00;1.00
3312;DHT22;1668;49.648;8.570;2024-03-02T14:42:12;16.00;1.00
3312;DHT22;1668;49.648;8.570;2024-03-02T14:44:40;16.00;1.00
3312;DHT22;1668;49.648;8.570;2024-03-02T14:47:08;16.00;1.00
3312;DHT22;1668;49.648;8.570;2024-03-02T14:49:35;16.10;1.00
3312;DHT22;1668;49.648;8.570;2024-03-02T14:52:07;16.30;1.00
3312;DHT22;1668;49.648;8.570;2024-03-02T14:54:35;16.30;1.00
3312;DHT22;1668;49.648;8.570;2024-03-02T14:57:03;16.50;1.00
3312;DHT22;1668;49.648;8.570;2024-03-02T14:59:30;16.50;1.00
3312;DHT22;1668;49.648;8.570;2024-03-02T15:01:58;16.60;1.00
3312;DHT22;1668;49.648;8.570;2024-03-02T15:04:25;17.10;1.00
3312;DHT22;1668;49.648;8.570;2024-03-02T15:06:53;17.10;1.00
3312;DHT22;1668;49.648;8.570;2024-03-02T15:09:21;17.20;1.00
3312;DHT22;1668;49.648;8.570;2024-03-02T15:11:48;17.30;1.00
3312;DHT22;1668;49.648;8.570;2024-03-02T15:14:16;17.40;1.00
3312;DHT22;1668;49.648;8.570;2024-03-02T15:16:43;17.40;1.00
3312;DHT22;1668;49.648;8.570;2024-03-02T15:19:13;17.40;1.00
3312;DHT22;1668;49.648;8.570;2024-03-02T15:21:40;17.40;1.00
3312;DHT22;1668;49.648;8.570;2024-03-02T15:24:08;17.20;1.00
3312;DHT22;1668;49.648;8.570;2024-03-02T15:26:43;17.00;1.00
3312;DHT22;1668;49.648;8.570;2024-03-02T15:29:10;16.80;1.00
3312;DHT22;1668;49.648;8.570;2024-03-02T15:31:49;16.70;1.00
3312;DHT22;1668;49.648;8.570;2024-03-02T15:34:17;16.70;1.00
3312;DHT22;1668;49.648;8.570;2024-03-02T15:36:44;16.70;1.00
3312;DHT22;1668;49.648;8.570;2024-03-02T15:39:11;16.60;1.00
3312;DHT22;1668;49.648;8.570;2024-03-02T15:41:38;16.40;1.00
3312;DHT22;1668;49.648;8.570;2024-03-02T15:44:08;16.30;1.00
3312;DHT22;1668;49.648;8.570;2024-03-02T15:46:36;16.20;1.00
3312;DHT22;1668;49.648;8.570;2024-03-02T15:49:04;16.10;1.00
3312;DHT22;1668;49.648;8.570;2024-03-02T15:51:32;16.10;1.00
3312;DHT22;1668;49.648;8.570;2024-03-02T15:53:59;16.10;1.00
3312;DHT22;1668;49.648;8.570;2024-03-02T15:56:26;16.00;1.00
3312;DHT22;1668;49.648;8.570;2024-03-02T15:58:53;16.00;1.00
3312;DHT22;1668;49.648;8.570;2024-03-02T16:01:23;15.90;1.00
3312;DHT22;1668;49.648;8.570;2024-03-02T16:03:51;15.80;1.00
3312;DHT22;1668;49.648;8.570;2024-03-02T16:06:17;15.80;1.00
3312;DHT22;1668;49.648;8.570;2024-03-02T16:08:44;15.70;1.00
3312;DHT22;1668;49.648;8.570;2024-03-02T16:11:11;15.60;1.00
3312;DHT22;1668;49.648;8.570;2024-03-02T16:13:38;15.50;1.00
3312;DHT22;1668;49.648;8.570;2024-03-02T16:16:05;15.50;1.00
3312;DHT22;1668;49.648;8.570;2024-03-02T16:18:34;15.40;1.00
3312;DHT22;1668;49.648;8.570;2024-03-02T16:21:02;15.40;1.00
3312;DHT22;1668;49.648;8.570;2024-03-02T16:23:30;15.30;1.00
3312;DHT22;1668;49.648;8.570;2024-03-02T16:25:57;15.20;1.00
3312;DHT22;1668;49.648;8.570;2024-03-02T16:28:24;15.10;1.00
3312;DHT22;1668;49.648;8.570;2024-03-02T16:30:51;15.10;1.00
3312;DHT22;1668;49.648;8.570;2024-03-02T16:33:19;15.10;1.00
3312;DHT22;1668;49.648;8.570;2024-03-02T16:35:48;15.00;1.00
3312;DHT22;1668;49.648;8.570;2024-03-02T16:38:15;14.90;1.00
3312;DHT22;1668;49.648;8.570;2024-03-02T16:40:42;14.90;1.00
3312;DHT22;1668;49.648;8.570;2024-03-02T16:43:10;14.80;1.00
3312;DHT22;1668;49.648;8.570;2024-03-02T16:45:37;14.70;1.00
3312;DHT22;1668;49.648;8.570;2024-03-02T16:48:05;14.70;1.00
3312;DHT22;1668;49.648;8.570;2024-03-02T16:50:32;14.60;17.60